createdAt,value
2018-02-15T00:01:54.419Z,30.33
2018-02-15T00:04:21.292Z,29.00
2018-02-15T00:06:48.910Z,29.48
2018-02-15T00:09:15.904Z,27.77
2018-02-15T00:11:42.794Z,27.70
2018-02-15T00:14:09.712Z,27.20
2018-02-15T00:16:36.586Z,29.25
2018-02-15T00:19:03.514Z,28.10
2018-02-15T00:21:30.443Z,29.02
2018-02-15T00:23:57.356Z,26.05
2018-02-15T00:26:24.233Z,26.37
2018-02-15T00:28:51.174Z,25.67
2018-02-15T00:31:18.040Z,28.27
2018-02-15T00:33:44.907Z,29.92
2018-02-15T00:36:11.911Z,26.08
2018-02-15T00:38:38.775Z,25.70
2018-02-15T00:41:05.659Z,31.17
2018-02-15T00:43:32.587Z,28.67
2018-02-15T00:45:59.443Z,29.35
2018-02-15T00:48:26.379Z,30.58
2018-02-15T00:50:53.298Z,26.55
2018-02-15T00:53:20.310Z,25.27
2018-02-15T00:55:47.232Z,25.08
2018-02-15T00:58:14.174Z,25.02
2018-02-15T01:00:41.120Z,28.15
2018-02-15T01:03:07.988Z,29.27
2018-02-15T01:05:34.961Z,29.33
2018-02-15T01:08:01.910Z,25.50
2018-02-15T01:10:28.870Z,26.80
2018-02-15T01:12:56.382Z,25.90
2018-02-15T01:15:24.010Z,25.80
2018-02-15T01:17:50.953Z,26.70
2018-02-15T01:20:17.881Z,27.85
2018-02-15T01:22:44.854Z,28.10
2018-02-15T01:25:11.731Z,26.25
2018-02-15T01:27:39.364Z,26.73
2018-02-15T01:30:06.302Z,26.90
2018-02-15T01:32:33.182Z,27.80
2018-02-15T01:35:00.871Z,25.15
2018-02-15T01:37:27.762Z,24.75
2018-02-15T01:39:54.757Z,27.50
2018-02-15T01:42:22.368Z,26.15
2018-02-15T01:44:49.286Z,28.08
2018-02-15T01:47:16.251Z,27.40
2018-02-15T01:50:02.793Z,28.23
2018-02-15T01:52:29.791Z,26.00
2018-02-15T01:54:56.684Z,25.40
2018-02-15T01:57:23.547Z,24.37
2018-02-15T01:59:51.224Z,26.67
2018-02-15T02:02:18.167Z,25.65
2018-02-15T02:04:45.136Z,26.62
2018-02-15T02:07:12.026Z,28.60
2018-02-15T02:09:38.915Z,24.58
2018-02-15T02:12:05.849Z,26.90
2018-02-15T02:14:33.503Z,28.65
2018-02-15T02:17:01.227Z,27.67
2018-02-15T02:19:28.202Z,22.25
2018-02-15T02:21:55.082Z,25.08
2018-02-15T02:24:22.042Z,26.20
2018-02-15T02:26:48.910Z,24.70
2018-02-15T02:29:15.919Z,25.42
2018-02-15T02:31:42.808Z,25.15
2018-02-15T02:34:09.789Z,24.60
2018-02-15T02:36:36.687Z,26.27
2018-02-15T02:39:03.697Z,27.45
2018-02-15T02:41:30.639Z,25.15
2018-02-15T02:43:57.516Z,26.87
2018-02-15T02:46:24.406Z,25.50
2018-02-15T02:48:51.362Z,27.70
2018-02-15T02:51:18.989Z,27.35
2018-02-15T02:53:45.991Z,26.42
2018-02-15T02:56:12.940Z,26.87
2018-02-15T02:58:39.892Z,29.37
2018-02-15T03:01:06.919Z,24.92
2018-02-15T03:03:34.540Z,24.52
2018-02-15T03:06:01.491Z,25.95
2018-02-15T03:08:28.422Z,26.15
2018-02-15T03:10:55.380Z,25.12
2018-02-15T03:13:22.290Z,24.58
2018-02-15T03:15:49.166Z,22.67
2018-02-15T03:18:16.095Z,20.70
2018-02-15T03:20:43.113Z,24.98
2018-02-15T03:23:10.070Z,22.30
2018-02-15T03:25:36.988Z,21.45
2018-02-15T03:28:03.861Z,22.17
2018-02-15T03:30:30.841Z,21.95
2018-02-15T03:32:57.787Z,21.55
2018-02-15T03:35:24.716Z,21.25
2018-02-15T03:37:51.603Z,22.00
2018-02-15T03:40:18.536Z,22.90
2018-02-15T03:42:45.466Z,21.80
2018-02-15T03:45:12.346Z,23.50
2018-02-15T03:47:39.282Z,22.60
2018-02-15T03:50:06.157Z,20.40
2018-02-15T03:52:33.791Z,22.35
2018-02-15T03:55:00.720Z,23.10
2018-02-15T03:57:27.645Z,21.48
2018-02-15T03:59:54.616Z,21.12
2018-02-15T04:02:21.575Z,20.85
2018-02-15T04:04:48.559Z,23.70
2018-02-15T04:07:15.506Z,21.87
2018-02-15T04:09:42.391Z,20.73
2018-02-15T04:12:09.387Z,21.12
2018-02-15T04:14:37.006Z,21.17
2018-02-15T04:17:03.967Z,21.45
2018-02-15T04:19:30.826Z,22.08
2018-02-15T04:21:57.927Z,24.63
2018-02-15T04:24:24.791Z,23.85
2018-02-15T04:26:51.716Z,25.40
2018-02-15T04:29:18.661Z,21.15
2018-02-15T04:31:45.596Z,20.23
2018-02-15T04:34:12.562Z,25.27
2018-02-15T04:36:39.513Z,21.00
2018-02-15T04:39:06.383Z,20.70
2018-02-15T04:41:33.236Z,19.80
2018-02-15T04:44:00.158Z,21.67
2018-02-15T04:46:27.092Z,22.60
2018-02-15T04:48:54.039Z,21.23
2018-02-15T04:51:21.094Z,22.85
2018-02-15T04:53:47.960Z,23.35
2018-02-15T04:56:14.861Z,21.10
2018-02-15T04:58:41.814Z,22.27
2018-02-15T05:01:08.743Z,21.15
2018-02-15T05:03:35.667Z,22.98
2018-02-15T05:06:03.340Z,21.85
2018-02-15T05:08:30.343Z,21.15
2018-02-15T05:10:59.358Z,21.12
2018-02-15T05:13:26.260Z,22.85
2018-02-15T05:15:53.161Z,21.23
2018-02-15T05:18:20.887Z,22.37
2018-02-15T05:20:47.770Z,22.90
2018-02-15T05:23:15.440Z,20.73
2018-02-15T05:25:43.069Z,20.23
2018-02-15T05:30:55.972Z,21.05
2018-02-15T05:33:23.981Z,22.20
2018-02-15T05:36:00.823Z,20.92
2018-02-15T05:38:28.380Z,21.50
2018-02-15T05:40:55.464Z,21.58
2018-02-15T05:43:22.410Z,21.35
2018-02-15T05:45:50.506Z,23.00
2018-02-15T05:48:28.650Z,21.27
2018-02-15T05:51:04.441Z,20.00
2018-02-15T05:53:32.416Z,21.15
2018-02-15T05:55:59.444Z,19.95
2018-02-15T05:58:26.324Z,21.50
2018-02-15T06:00:53.283Z,21.90
2018-02-15T06:03:22.327Z,19.35
2018-02-15T06:05:50.069Z,20.12
2018-02-15T06:08:17.832Z,21.15
2018-02-15T06:10:45.758Z,19.83
2018-02-15T06:13:13.293Z,20.33
2018-02-15T06:15:40.172Z,20.92
2018-02-15T06:18:07.104Z,21.30
2018-02-15T06:20:33.962Z,19.27
2018-02-15T06:23:00.898Z,21.83
2018-02-15T06:25:27.762Z,18.92
2018-02-15T06:27:55.384Z,19.10
2018-02-15T06:30:22.324Z,21.12
2018-02-15T06:32:49.199Z,20.17
2018-02-15T06:35:16.163Z,17.48
2018-02-15T06:37:43.856Z,18.70
2018-02-15T06:40:10.746Z,18.95
2018-02-15T06:42:37.693Z,21.37
2018-02-15T06:45:05.404Z,17.02
2018-02-15T06:47:32.390Z,20.90
2018-02-15T06:49:59.343Z,20.20
2018-02-15T06:52:26.334Z,17.45
2018-02-15T06:54:53.367Z,19.95
2018-02-15T06:57:21.099Z,17.98
2018-02-15T06:59:48.024Z,20.12
2018-02-15T07:02:14.976Z,20.27
2018-02-15T07:04:53.771Z,20.83
2018-02-15T07:07:31.982Z,19.30
2018-02-15T07:10:10.433Z,19.77
2018-02-15T07:12:50.427Z,18.98
2018-02-15T07:15:28.802Z,20.65
2018-02-15T07:18:09.458Z,20.17
2018-02-15T07:23:32.204Z,19.17
2018-02-15T07:26:10.964Z,17.83
2018-02-15T07:28:49.912Z,19.02
2018-02-15T07:31:27.161Z,16.42
2018-02-15T07:33:56.988Z,20.75
2018-02-15T07:36:23.999Z,18.67
2018-02-15T07:38:50.872Z,18.30
2018-02-15T07:41:17.766Z,15.25
2018-02-15T07:43:46.536Z,17.30
2018-02-15T07:46:13.476Z,17.87
2018-02-15T07:48:40.418Z,17.20
2018-02-15T07:51:07.418Z,18.10
2018-02-15T07:53:34.368Z,18.27
2018-02-15T07:56:01.479Z,15.70
2018-02-15T07:58:28.441Z,14.27
2018-02-15T08:00:56.304Z,15.65
2018-02-15T08:03:25.778Z,16.58
2018-02-15T08:05:55.206Z,14.15
2018-02-15T08:08:22.071Z,15.55
2018-02-15T08:10:49.770Z,14.75
2018-02-15T08:13:16.808Z,12.27
2018-02-15T08:15:43.688Z,13.57
2018-02-15T08:18:10.631Z,12.80
2018-02-15T08:20:37.580Z,10.90
2018-02-15T08:23:04.516Z,10.40
2018-02-15T08:25:31.436Z,10.07
2018-02-15T08:27:58.306Z,9.77
2018-02-15T08:30:25.227Z,10.25
2018-02-15T08:32:52.100Z,10.20
2018-02-15T08:35:19.032Z,11.18
2018-02-15T08:37:45.899Z,11.00
2018-02-15T08:40:12.839Z,11.75
2018-02-15T08:42:39.855Z,10.52
2018-02-15T08:45:06.788Z,12.80
2018-02-15T08:47:33.748Z,12.68
2018-02-15T08:50:00.649Z,11.00
2018-02-15T08:52:27.644Z,12.15
2018-02-15T08:54:54.624Z,11.27
2018-02-15T08:57:21.569Z,11.20
2018-02-15T08:59:48.530Z,11.60
2018-02-15T09:02:15.454Z,10.35
2018-02-15T09:04:42.504Z,11.02
2018-02-15T09:07:09.415Z,10.45
2018-02-15T09:09:36.315Z,11.10
2018-02-15T09:12:03.258Z,12.15
2018-02-15T09:14:30.156Z,14.38
2018-02-15T09:16:57.125Z,14.02
2018-02-15T09:22:16.830Z,11.25
2018-02-15T09:24:59.369Z,12.45
2018-02-15T09:27:36.477Z,15.00
2018-02-15T09:30:19.170Z,13.77
2018-02-15T09:33:01.353Z,10.80
2018-02-15T09:35:40.802Z,13.62
2018-02-15T09:38:18.306Z,11.82
2018-02-15T09:40:45.283Z,10.57
2018-02-15T09:43:12.904Z,10.80
2018-02-15T09:45:43.813Z,11.68
2018-02-15T09:48:25.234Z,10.80
2018-02-15T09:50:54.697Z,11.85
2018-02-15T09:53:27.199Z,11.35
2018-02-15T09:55:54.180Z,10.95
2018-02-15T09:58:21.810Z,11.93
2018-02-15T10:01:01.262Z,10.85
2018-02-15T10:03:28.926Z,12.70
2018-02-15T10:05:55.797Z,13.55
2018-02-15T10:08:23.411Z,15.80
2018-02-15T10:11:05.799Z,12.90
2018-02-15T10:16:19.499Z,14.63
2018-02-15T10:18:47.345Z,11.02
2018-02-15T10:21:14.779Z,12.55
2018-02-15T10:23:42.007Z,12.77
2018-02-15T10:26:09.900Z,14.35
2018-02-15T10:28:37.061Z,13.02
2018-02-15T10:31:04.113Z,11.77
2018-02-15T10:33:31.050Z,15.25
2018-02-15T10:35:59.350Z,12.18
2018-02-15T10:38:30.992Z,14.02
2018-02-15T10:40:58.018Z,11.88
2018-02-15T10:43:25.135Z,11.00
2018-02-15T10:45:52.100Z,11.60
2018-02-15T10:48:20.042Z,12.13
2018-02-15T10:50:47.236Z,12.75
2018-02-15T10:53:14.578Z,12.02
2018-02-15T10:55:41.832Z,12.75
2018-02-15T10:58:09.716Z,11.02
2018-02-15T11:00:43.060Z,11.23
2018-02-15T11:03:15.948Z,12.30
2018-02-15T11:05:46.090Z,12.82
2018-02-15T11:08:13.201Z,10.95
2018-02-15T11:10:42.829Z,10.68
2018-02-15T11:13:17.463Z,12.07
2018-02-15T11:15:53.734Z,13.10
2018-02-15T11:18:24.993Z,12.48
2018-02-15T11:20:53.396Z,11.40
2018-02-15T11:23:20.695Z,11.98
2018-02-15T11:25:50.364Z,13.77
2018-02-15T11:28:17.886Z,11.80
2018-02-15T11:30:45.141Z,13.27
2018-02-15T11:33:12.407Z,13.27
2018-02-15T11:35:39.648Z,12.25
2018-02-15T11:38:11.909Z,13.88
2018-02-15T11:40:39.130Z,11.55
2018-02-15T11:43:12.396Z,11.85
2018-02-15T11:45:39.595Z,12.65
2018-02-15T11:48:13.517Z,12.40
2018-02-15T11:50:40.686Z,13.82
2018-02-15T11:53:10.859Z,14.77
2018-02-15T11:55:43.948Z,13.13
2018-02-15T11:58:28.988Z,11.98
2018-02-15T12:01:08.307Z,12.60
2018-02-15T12:03:45.153Z,12.07
2018-02-15T12:06:13.190Z,12.20
2018-02-15T12:08:41.287Z,13.50
2018-02-15T12:11:08.550Z,12.05
2018-02-15T12:13:35.668Z,14.35
2018-02-15T12:16:02.979Z,13.05
2018-02-15T12:18:32.317Z,12.95
2018-02-15T12:21:00.121Z,11.80
2018-02-15T12:23:36.772Z,12.07
2018-02-15T12:26:13.919Z,12.60
2018-02-15T12:28:43.763Z,13.02
2018-02-15T12:31:11.596Z,13.20
2018-02-15T12:33:47.998Z,12.50
2018-02-15T12:36:15.860Z,13.40
2018-02-15T12:38:44.392Z,13.15
2018-02-15T12:41:12.414Z,11.88
2018-02-15T12:43:40.351Z,12.73
2018-02-15T12:46:08.444Z,11.60
2018-02-15T12:48:38.482Z,13.13
2018-02-15T12:51:05.879Z,13.27
2018-02-15T12:53:42.141Z,13.93
2018-02-15T12:56:14.308Z,13.30
2018-02-15T12:58:43.661Z,13.93
2018-02-15T13:01:11.554Z,13.77
2018-02-15T13:03:43.626Z,13.07
2018-02-15T13:06:11.391Z,12.70
2018-02-15T13:08:40.669Z,14.27
2018-02-15T13:14:03.239Z,15.93
2018-02-15T13:16:50.070Z,16.80
2018-02-15T13:19:36.860Z,17.20
2018-02-15T13:22:04.634Z,16.90
2018-02-15T13:24:31.875Z,21.05
2018-02-15T13:26:59.743Z,18.42
2018-02-15T13:29:37.391Z,21.70
2018-02-15T13:32:04.939Z,17.33
2018-02-15T13:34:36.758Z,19.73
2018-02-15T13:37:04.999Z,18.37
2018-02-15T13:39:32.557Z,19.60
2018-02-15T13:42:02.797Z,16.73
2018-02-15T13:47:35.004Z,17.62
2018-02-15T13:50:20.434Z,20.37
2018-02-15T13:53:06.517Z,20.10
2018-02-15T13:55:46.039Z,18.80
2018-02-15T13:58:28.523Z,20.67
2018-02-15T14:01:07.281Z,19.70
2018-02-15T14:03:38.436Z,18.70
2018-02-15T14:06:09.507Z,17.62
2018-02-15T14:08:37.982Z,20.48
2018-02-15T14:11:05.166Z,19.15
2018-02-15T14:13:33.164Z,20.08
2018-02-15T14:16:00.276Z,21.30
2018-02-15T14:18:27.252Z,22.33
2018-02-15T14:21:00.331Z,21.23
2018-02-15T14:23:27.931Z,21.40
2018-02-15T14:25:54.980Z,22.50
2018-02-15T14:28:23.315Z,20.27
2018-02-15T14:30:50.568Z,24.50
2018-02-15T14:33:21.657Z,21.33
2018-02-15T14:35:49.216Z,21.27
2018-02-15T14:38:18.862Z,22.40
2018-02-15T14:40:46.069Z,23.77
2018-02-15T14:43:13.169Z,21.70
2018-02-15T14:45:40.230Z,19.80
2018-02-15T14:48:07.288Z,21.40
2018-02-15T14:50:35.120Z,19.92
2018-02-15T14:53:05.293Z,20.08
2018-02-15T14:55:33.180Z,21.75
2018-02-15T14:58:00.240Z,23.40
2018-02-15T15:00:40.062Z,21.62
2018-02-15T15:03:19.948Z,23.17
2018-02-15T15:06:00.323Z,23.65
2018-02-15T15:08:27.908Z,23.55
2018-02-15T15:11:06.947Z,22.37
2018-02-15T15:13:50.501Z,21.87
2018-02-15T16:04:15.212Z,23.52
2018-02-15T16:09:40.541Z,23.55
2018-02-15T16:12:09.459Z,23.98
2018-02-15T16:14:36.882Z,22.98
2018-02-15T16:17:03.847Z,26.02
2018-02-15T16:19:31.509Z,23.60
2018-02-15T16:22:00.491Z,25.30
2018-02-15T16:24:30.187Z,24.77
2018-02-15T16:26:59.549Z,23.30
2018-02-15T16:29:32.762Z,27.05
2018-02-15T16:32:01.389Z,27.62
2018-02-15T16:34:29.572Z,26.02
2018-02-15T16:36:58.670Z,26.08
2018-02-15T16:39:30.018Z,23.42
2018-02-15T16:42:08.472Z,25.00
2018-02-15T16:44:36.684Z,22.37
2018-02-15T16:47:05.207Z,24.00
2018-02-15T16:49:37.365Z,26.08
2018-02-15T16:52:09.033Z,24.55
2018-02-15T16:54:38.272Z,21.05
2018-02-15T16:57:21.911Z,23.20
2018-02-15T17:00:01.279Z,22.85
2018-02-15T17:02:29.760Z,23.20
2018-02-15T17:04:57.608Z,22.37
2018-02-15T17:07:24.986Z,22.42
2018-02-15T17:09:51.931Z,22.45
2018-02-15T17:12:24.682Z,22.73
2018-02-15T17:14:55.543Z,23.23
2018-02-15T17:17:32.240Z,22.37
2018-02-15T17:20:05.238Z,24.12
2018-02-15T17:22:33.439Z,21.90
2018-02-15T17:25:00.432Z,23.38
2018-02-15T17:27:37.653Z,21.37
2018-02-15T17:30:10.944Z,23.85
2018-02-15T17:32:43.079Z,26.48
2018-02-15T17:40:40.621Z,23.40
2018-02-15T17:43:20.566Z,22.67
2018-02-15T17:45:59.575Z,25.10
2018-02-15T17:48:35.334Z,26.40
2018-02-15T17:51:13.538Z,26.00
2018-02-15T17:53:51.860Z,25.92
2018-02-15T17:56:29.572Z,24.77
2018-02-15T17:59:12.504Z,27.73
2018-02-15T18:01:51.476Z,32.85
2018-02-15T18:04:29.693Z,27.95
2018-02-15T18:07:08.948Z,25.90
2018-02-15T18:09:43.501Z,29.58
2018-02-15T18:12:17.608Z,34.67
2018-02-15T18:14:50.720Z,27.98
2018-02-15T18:17:20.919Z,32.33
2018-02-15T18:19:49.072Z,38.67
2018-02-15T18:22:17.995Z,44.92
2018-02-15T18:24:48.672Z,32.85
2018-02-15T18:27:15.629Z,31.80
2018-02-15T18:29:45.808Z,30.60
2018-02-15T18:32:19.092Z,33.92
2018-02-15T18:34:57.200Z,31.95
2018-02-15T18:37:26.735Z,32.80
2018-02-15T18:39:56.134Z,35.00
2018-02-15T18:42:24.166Z,31.17
2018-02-15T18:44:52.502Z,31.65
2018-02-15T18:47:20.056Z,32.25
2018-02-15T18:49:47.200Z,35.97
2018-02-15T18:52:14.519Z,36.85
2018-02-15T18:54:41.572Z,32.35
2018-02-15T18:57:09.027Z,35.03
2018-02-15T18:59:36.429Z,32.10
2018-02-15T19:02:03.669Z,29.87
2018-02-15T19:04:32.732Z,31.80
2018-02-15T19:07:00.568Z,30.80
2018-02-15T19:09:28.824Z,29.02
2018-02-15T19:11:56.112Z,31.37
2018-02-15T19:14:25.084Z,32.95
2018-02-15T19:16:52.287Z,32.22
2018-02-15T19:19:20.320Z,30.40
2018-02-15T19:21:58.005Z,31.87
2018-02-15T19:24:37.886Z,30.92
2018-02-15T19:27:18.471Z,34.15
2018-02-15T19:29:54.762Z,34.88
2018-02-15T19:32:22.940Z,33.45
2018-02-15T19:37:36.814Z,31.55
2018-02-15T19:40:16.110Z,33.17
2018-02-15T19:42:50.201Z,35.83
2018-02-15T19:45:31.946Z,35.40
2018-02-15T19:48:12.344Z,33.00
2018-02-15T19:50:40.008Z,30.40
2018-02-15T19:53:20.170Z,31.40
2018-02-15T19:56:01.390Z,32.75
2018-02-15T19:58:32.040Z,29.50
2018-02-15T20:00:59.834Z,32.90
2018-02-15T20:03:35.025Z,32.45
2018-02-15T20:06:06.892Z,31.33
2018-02-15T20:08:47.650Z,29.90
2018-02-15T20:11:31.180Z,31.15
2018-02-15T20:14:06.704Z,31.17
2018-02-15T20:16:45.516Z,31.17
2018-02-15T20:19:23.704Z,29.37
2018-02-15T20:22:06.423Z,35.10
2018-02-15T20:24:47.146Z,30.27
2018-02-15T20:27:30.660Z,33.72
2018-02-15T20:29:58.773Z,41.10
2018-02-15T20:32:25.735Z,46.17
2018-02-15T20:34:55.224Z,37.30
2018-02-15T20:37:39.931Z,33.45
2018-02-15T20:40:13.283Z,31.40
2018-02-15T20:42:40.275Z,32.20
2018-02-15T20:45:07.671Z,30.02
2018-02-15T20:47:34.549Z,35.45
2018-02-15T20:50:18.785Z,36.63
2018-02-15T20:52:53.958Z,30.40
2018-02-15T20:55:27.572Z,36.75
2018-02-15T20:58:04.463Z,39.75
2018-02-15T21:00:36.855Z,38.17
2018-02-15T21:03:04.541Z,39.15
2018-02-15T21:05:31.463Z,34.33
2018-02-15T21:07:58.914Z,34.97
2018-02-15T21:10:25.848Z,31.67
2018-02-15T21:12:53.479Z,32.08
2018-02-15T21:15:20.631Z,29.55
2018-02-15T21:17:47.583Z,30.85
2018-02-15T21:20:14.563Z,34.10
2018-02-15T21:22:46.972Z,39.08
2018-02-15T21:25:14.691Z,38.72
2018-02-15T21:27:42.395Z,30.75
2018-02-15T21:30:10.702Z,31.02
2018-02-15T21:32:46.865Z,33.70
2018-02-15T21:35:14.884Z,32.45
2018-02-15T21:37:41.824Z,31.00
2018-02-15T21:40:09.455Z,31.73
2018-02-15T21:42:50.954Z,30.73
2018-02-15T21:45:18.730Z,32.35
2018-02-15T21:47:46.451Z,28.55
2018-02-15T21:50:13.331Z,30.30
2018-02-15T21:52:40.199Z,31.25
2018-02-15T21:55:07.942Z,29.15
2018-02-15T21:57:34.860Z,29.73
2018-02-15T22:00:01.812Z,29.33
2018-02-15T22:02:28.700Z,27.98
2018-02-15T22:04:55.702Z,30.60
2018-02-15T22:07:22.798Z,29.87
2018-02-15T22:09:49.730Z,30.17
2018-02-15T22:12:16.651Z,32.47
2018-02-15T22:14:43.610Z,29.80
2018-02-15T22:17:12.803Z,28.05
2018-02-15T22:19:39.729Z,27.40
2018-02-15T22:22:06.702Z,28.58
2018-02-15T22:24:33.627Z,29.08
2018-02-15T22:27:00.582Z,27.60
2018-02-15T22:29:27.532Z,29.42
2018-02-15T22:31:54.461Z,27.85
2018-02-15T22:34:21.414Z,32.10
2018-02-15T22:36:49.141Z,28.75
2018-02-15T22:39:16.156Z,29.63
2018-02-15T22:41:43.039Z,29.20
2018-02-15T22:44:09.955Z,30.02
2018-02-15T22:46:37.661Z,29.40
2018-02-15T22:49:04.562Z,28.50
2018-02-15T22:51:32.285Z,29.35
2018-02-15T22:53:59.166Z,29.55
2018-02-15T22:56:26.120Z,27.58
2018-02-15T22:58:53.078Z,27.87
2018-02-15T23:01:20.778Z,25.02
2018-02-15T23:03:47.729Z,25.85
2018-02-15T23:06:14.631Z,34.10
2018-02-15T23:08:42.377Z,33.10
2018-02-15T23:11:09.289Z,35.28
2018-02-15T23:13:36.267Z,34.92
2018-02-15T23:16:03.158Z,29.70
2018-02-15T23:18:30.056Z,37.05
2018-02-15T23:20:57.025Z,42.88
2018-02-15T23:23:24.653Z,30.12
2018-02-15T23:25:51.604Z,32.05
2018-02-15T23:28:18.497Z,30.50
2018-02-15T23:30:45.448Z,37.90
2018-02-15T23:33:12.338Z,33.65
2018-02-15T23:35:39.274Z,28.15
2018-02-15T23:38:06.199Z,26.35
2018-02-15T23:40:33.130Z,28.70
2018-02-15T23:43:00.085Z,24.37
2018-02-15T23:45:26.979Z,23.40
2018-02-15T23:47:53.999Z,24.67
2018-02-15T23:50:20.953Z,24.45
2018-02-15T23:52:47.924Z,23.00
2018-02-15T23:55:14.811Z,23.33
2018-02-15T23:57:41.722Z,24.77
